sensor_id;sensor_type;location;lat;lon;timestamp;pressure;altitude;pressure_sealevel;temperature;humidity
53089;BME280;38968;47.696;17.540;2023-02-22T00:04:13;10041310.0;;;11.12;56.32617
53089;BME280;38968;47.696;17.540;2023-02-22T00:09:13;10041060.0;;;10.95;55.62695
53089;BME280;38968;47.696;17.540;2023-02-22T00:14:13;10040480.0;;;10.7;55.05566
53089;BME280;38968;47.696;17.540;2023-02-22T00:19:13;10041400.0;;;10.16;55.82324
53089;BME280;38968;47.696;17.540;2023-02-22T00:24:13;10042180.0;;;10.17;56.22656
53089;BME280;38968;47.696;17.540;2023-02-22T00:29:13;10042720.0;;;9.99;56.9707
53089;BME280;38968;47.696;17.540;2023-02-22T00:34:13;10041760.0;;;9.89;57.89648
53089;BME280;38968;47.696;17.540;2023-02-22T00:39:13;10041580.0;;;10.06;58.78906
53089;BME280;38968;47.696;17.540;2023-02-22T00:44:13;10040650.0;;;9.66;58.21973
53089;BME280;38968;47.696;17.540;2023-02-22T00:49:13;10040990.0;;;9.84;58.67871
53089;BME280;38968;47.696;17.540;2023-02-22T00:54:13;10040830.0;;;9.59;59.06934
53089;BME280;38968;47.696;17.540;2023-02-22T00:59:13;10041100.0;;;9.28;59.02734
53089;BME280;38968;47.696;17.540;2023-02-22T01:04:13;10040230.0;;;9.35;59.50488
53089;BME280;38968;47.696;17.540;2023-02-22T01:09:13;10041180.0;;;9.52;59.35645
53089;BME280;38968;47.696;17.540;2023-02-22T01:14:13;10040920.0;;;9.41;58.49512
53089;BME280;38968;47.696;17.540;2023-02-22T01:19:13;10040920.0;;;9.53;60.18066
53089;BME280;38968;47.696;17.540;2023-02-22T01:24:14;10040050.0;;;9.39;60.50391
53089;BME280;38968;47.696;17.540;2023-02-22T01:29:14;10040150.0;;;9.2;60.4082
53089;BME280;38968;47.696;17.540;2023-02-22T01:34:13;10040150.0;;;9.21;61.03906
53089;BME280;38968;47.696;17.540;2023-02-22T01:39:13;10039630.0;;;9.17;60.75879
53089;BME280;38968;47.696;17.540;2023-02-22T01:44:30;10039090.0;;;9.56;60.58594
53089;BME280;38968;47.696;17.540;2023-02-22T01:49:14;10039520.0;;;9.56;59.5332
53089;BME280;38968;47.696;17.540;2023-02-22T01:54:32;10039450.0;;;9.31;60.02441
53089;BME280;38968;47.696;17.540;2023-02-22T01:59:13;10039200.0;;;9.14;61.34863
53089;BME280;38968;47.696;17.540;2023-02-22T02:04:20;10038940.0;;;9.08;60.94043
53089;BME280;38968;47.696;17.540;2023-02-22T02:14:13;10038070.0;;;8.89;61.0625
53089;BME280;38968;47.696;17.540;2023-02-22T02:29:28;10036690.0;;;8.61;61.0459
53089;BME280;38968;47.696;17.540;2023-02-22T02:34:26;10037560.0;;;8.59;60.75684
53089;BME280;38968;47.696;17.540;2023-02-22T02:39:30;10038520.0;;;8.23;63.57715
53089;BME280;38968;47.696;17.540;2023-02-22T02:49:18;10038430.0;;;8.62;62.49609
53089;BME280;38968;47.696;17.540;2023-02-22T02:54:15;10037380.0;;;8.73;62.05566
53089;BME280;38968;47.696;17.540;2023-02-22T02:59:30;10037810.0;;;9.04;62.25977
53089;BME280;38968;47.696;17.540;2023-02-22T03:09:24;10037720.0;;;8.98;62.10059
53089;BME280;38968;47.696;17.540;2023-02-22T03:14:21;10038670.0;;;9.16;61.8877
53089;BME280;38968;47.696;17.540;2023-02-22T03:19:26;10038590.0;;;9;58.97754
53089;BME280;38968;47.696;17.540;2023-02-22T03:24:21;10039220.0;;;8.38;58.32324
53089;BME280;38968;47.696;17.540;2023-02-22T03:29:14;10038860.0;;;7.79;59.30273
53089;BME280;38968;47.696;17.540;2023-02-22T03:34:14;10038950.0;;;7.66;60.69531
53089;BME280;38968;47.696;17.540;2023-02-22T03:39:14;10039370.0;;;7.41;61.13867
53089;BME280;38968;47.696;17.540;2023-02-22T03:44:15;10039370.0;;;7.45;61.54395
53089;BME280;38968;47.696;17.540;2023-02-22T03:49:25;10041110.0;;;7.31;61.29492
53089;BME280;38968;47.696;17.540;2023-02-22T03:54:13;10040510.0;;;7.57;62.94629
53089;BME280;38968;47.696;17.540;2023-02-22T03:59:13;10040600.0;;;7.92;62.69043
53089;BME280;38968;47.696;17.540;2023-02-22T04:04:13;10042070.0;;;7.87;62.30762
53089;BME280;38968;47.696;17.540;2023-02-22T04:09:13;10041970.0;;;7.39;62.06836
53089;BME280;38968;47.696;17.540;2023-02-22T04:14:13;10040940.0;;;7.58;62.32227
53089;BME280;38968;47.696;17.540;2023-02-22T04:19:13;10042500.0;;;7.61;62.08887
53089;BME280;38968;47.696;17.540;2023-02-22T04:24:13;10042580.0;;;7.29;62.40625
53089;BME280;38968;47.696;17.540;2023-02-22T04:29:13;10041810.0;;;7.61;62.36133
53089;BME280;38968;47.696;17.540;2023-02-22T04:34:13;10042500.0;;;7.64;61.50098
53089;BME280;38968;47.696;17.540;2023-02-22T04:39:13;10042330.0;;;7.58;61.7666
53089;BME280;38968;47.696;17.540;2023-02-22T04:44:13;10041030.0;;;7.72;63.47949
53089;BME280;38968;47.696;17.540;2023-02-22T04:49:13;10041900.0;;;7.98;63.65527
53089;BME280;38968;47.696;17.540;2023-02-22T04:54:13;10041470.0;;;8.17;62.6123
53089;BME280;38968;47.696;17.540;2023-02-22T04:59:13;10041120.0;;;8.26;62.18066
53089;BME280;38968;47.696;17.540;2023-02-22T05:04:13;10041730.0;;;8.08;63.07715
53089;BME280;38968;47.696;17.540;2023-02-22T05:09:13;10041900.0;;;7.97;62.62988
53089;BME280;38968;47.696;17.540;2023-02-22T05:14:13;10041990.0;;;8;63.10059
53089;BME280;38968;47.696;17.540;2023-02-22T05:19:13;10041470.0;;;8.22;62.98438
53089;BME280;38968;47.696;17.540;2023-02-22T05:24:13;10040510.0;;;8.16;63.08887
53089;BME280;38968;47.696;17.540;2023-02-22T05:29:13;10041990.0;;;8.4;62.85156
53089;BME280;38968;47.696;17.540;2023-02-22T05:34:13;10041470.0;;;8.16;63.15723
53089;BME280;38968;47.696;17.540;2023-02-22T05:39:13;10042860.0;;;8.3;63.09863
53089;BME280;38968;47.696;17.540;2023-02-22T05:44:13;10042080.0;;;8.41;62.60156
53089;BME280;38968;47.696;17.540;2023-02-22T05:49:13;10042680.0;;;8.23;62.86035
53089;BME280;38968;47.696;17.540;2023-02-22T05:54:13;10042160.0;;;8.34;62.87598
53089;BME280;38968;47.696;17.540;2023-02-22T05:59:14;10043730.0;;;8.32;63.45508
53089;BME280;38968;47.696;17.540;2023-02-22T06:04:13;10041300.0;;;8.51;62.86719
53089;BME280;38968;47.696;17.540;2023-02-22T06:09:13;10040600.0;;;8.6;62.66211
53089;BME280;38968;47.696;17.540;2023-02-22T06:14:13;10040770.0;;;8.68;62.9375
53089;BME280;38968;47.696;17.540;2023-02-22T06:19:13;10041730.0;;;8.81;63.29883
53089;BME280;38968;47.696;17.540;2023-02-22T06:24:13;10041720.0;;;9.06;62.72949
53089;BME280;38968;47.696;17.540;2023-02-22T06:29:13;10042670.0;;;9.21;62.27246
53089;BME280;38968;47.696;17.540;2023-02-22T06:34:13;10044230.0;;;9.38;61.66797
53089;BME280;38968;47.696;17.540;2023-02-22T06:39:14;10045810.0;;;8.34;64.51563
53089;BME280;38968;47.696;17.540;2023-02-22T06:44:14;10045200.0;;;8.73;63.86816
53089;BME280;38968;47.696;17.540;2023-02-22T06:49:13;10045980.0;;;9;63.17676
53089;BME280;38968;47.696;17.540;2023-02-22T06:54:13;10047380.0;;;8.9;64.37109
53089;BME280;38968;47.696;17.540;2023-02-22T06:59:13;10047540.0;;;9.16;62.99512
53089;BME280;38968;47.696;17.540;2023-02-22T07:04:13;10047540.0;;;9.06;63.7793
53089;BME280;38968;47.696;17.540;2023-02-22T07:09:14;10048150.0;;;9.27;63.25098
53089;BME280;38968;47.696;17.540;2023-02-22T07:14:16;10047800.0;;;9.23;62.49121
53089;BME280;38968;47.696;17.540;2023-02-22T07:19:13;10048930.0;;;9.16;63.46387
53089;BME280;38968;47.696;17.540;2023-02-22T07:24:13;10048490.0;;;9.43;62.97656
53089;BME280;38968;47.696;17.540;2023-02-22T07:29:13;10049020.0;;;9.17;63.64648
53089;BME280;38968;47.696;17.540;2023-02-22T07:34:13;10048660.0;;;9.6;63.04785
53089;BME280;38968;47.696;17.540;2023-02-22T07:39:13;10049260.0;;;9.82;62.37109
53089;BME280;38968;47.696;17.540;2023-02-22T07:44:13;10048640.0;;;9.91;61.80078
53089;BME280;38968;47.696;17.540;2023-02-22T07:49:13;10048970.0;;;10.21;61.5332
53089;BME280;38968;47.696;17.540;2023-02-22T07:54:13;10048440.0;;;10.43;60.81055
53089;BME280;38968;47.696;17.540;2023-02-22T07:59:14;10048440.0;;;10.37;60.80176
53089;BME280;38968;47.696;17.540;2023-02-22T08:04:13;10048870.0;;;10.46;61.28418
53089;BME280;38968;47.696;17.540;2023-02-22T08:09:13;10048500.0;;;10.7;60.36523
53089;BME280;38968;47.696;17.540;2023-02-22T08:14:14;10048490.0;;;10.87;60.56152
53089;BME280;38968;47.696;17.540;2023-02-22T08:19:13;10048840.0;;;10.84;60.04199
53089;BME280;38968;47.696;17.540;2023-02-22T08:24:13;10048570.0;;;10.92;60.87695
53089;BME280;38968;47.696;17.540;2023-02-22T08:29:13;10048260.0;;;11.32;59.77344
53089;BME280;38968;47.696;17.540;2023-02-22T08:34:13;10047870.0;;;11.69;58.92969
53089;BME280;38968;47.696;17.540;2023-02-22T08:39:13;10047200.0;;;12.13;57.79102
53089;BME280;38968;47.696;17.540;2023-02-22T08:44:13;10047590.0;;;12.45;56.92383
53089;BME280;38968;47.696;17.540;2023-02-22T08:49:13;10047010.0;;;12.78;56.77148
53089;BME280;38968;47.696;17.540;2023-02-22T08:54:13;10047030.0;;;13.14;55.31738
53089;BME280;38968;47.696;17.540;2023-02-22T08:59:13;10046260.0;;;13.02;55.43945
53089;BME280;38968;47.696;17.540;2023-02-22T09:04:13;10045670.0;;;13.39;54.79395
53089;BME280;38968;47.696;17.540;2023-02-22T09:09:13;10046660.0;;;13.69;52.65723
53089;BME280;38968;47.696;17.540;2023-02-22T09:14:13;10047300.0;;;13.95;52.83887
53089;BME280;38968;47.696;17.540;2023-02-22T09:19:13;10046530.0;;;14.26;51.75293
53089;BME280;38968;47.696;17.540;2023-02-22T09:24:13;10046930.0;;;14.4;51.04004
53089;BME280;38968;47.696;17.540;2023-02-22T09:29:13;10047750.0;;;14.64;50.39453
53089;BME280;38968;47.696;17.540;2023-02-22T09:34:13;10047230.0;;;14.64;51.0332
53089;BME280;38968;47.696;17.540;2023-02-22T09:39:15;10047480.0;;;14.68;51.18848
53089;BME280;38968;47.696;17.540;2023-02-22T09:44:35;10046540.0;;;14.58;49.68164
53089;BME280;38968;47.696;17.540;2023-02-22T09:49:27;10046520.0;;;14.29;50.49316
53089;BME280;38968;47.696;17.540;2023-02-22T09:54:23;10046670.0;;;14.03;52.45605
53089;BME280;38968;47.696;17.540;2023-02-22T09:59:14;10046190.0;;;14.19;51.50195
53089;BME280;38968;47.696;17.540;2023-02-22T10:04:23;10045630.0;;;14.73;51.14746
53089;BME280;38968;47.696;17.540;2023-02-22T10:09:13;10044650.0;;;14.42;50.71777
53089;BME280;38968;47.696;17.540;2023-02-22T10:34:15;10041790.0;;;15.86;47.31152
53089;BME280;38968;47.696;17.540;2023-02-22T10:39:32;10041030.0;;;16.59;46.24609
53089;BME280;38968;47.696;17.540;2023-02-22T10:44:13;10039800.0;;;16.83;45.5957
53089;BME280;38968;47.696;17.540;2023-02-22T10:49:20;10040070.0;;;17.08;44.8252
53089;BME280;38968;47.696;17.540;2023-02-22T10:59:25;10039020.0;;;17.52;43.61914
53089;BME280;38968;47.696;17.540;2023-02-22T11:04:18;10038520.0;;;17.43;43.2832
53089;BME280;38968;47.696;17.540;2023-02-22T11:09:17;10038470.0;;;17.34;43.30957
53089;BME280;38968;47.696;17.540;2023-02-22T11:14:26;10037720.0;;;17.46;43.22656
53089;BME280;38968;47.696;17.540;2023-02-22T11:19:30;10037090.0;;;17.48;43.49805
53089;BME280;38968;47.696;17.540;2023-02-22T11:24:14;10036690.0;;;17.4;43.11621
53089;BME280;38968;47.696;17.540;2023-02-22T11:29:17;10036800.0;;;17.09;43.78711
53089;BME280;38968;47.696;17.540;2023-02-22T11:34:34;10036630.0;;;17.06;44.52051
53089;BME280;38968;47.696;17.540;2023-02-22T11:39:24;10036120.0;;;17.27;44.21387
53089;BME280;38968;47.696;17.540;2023-02-22T11:44:30;10035260.0;;;17.22;43.65918
53089;BME280;38968;47.696;17.540;2023-02-22T11:49:13;10034920.0;;;17.18;43.64551
53089;BME280;38968;47.696;17.540;2023-02-22T11:54:32;10034560.0;;;17.21;43.21484
53089;BME280;38968;47.696;17.540;2023-02-22T11:59:39;10033870.0;;;17.4;43.1748
53089;BME280;38968;47.696;17.540;2023-02-22T12:04:32;10033940.0;;;17.2;43.50684
53089;BME280;38968;47.696;17.540;2023-02-22T12:14:33;10033480.0;;;17.27;43.6416
53089;BME280;38968;47.696;17.540;2023-02-22T12:19:32;10032540.0;;;17.4;43.38574
53089;BME280;38968;47.696;17.540;2023-02-22T12:24:15;10032330.0;;;17.04;43.3623
53089;BME280;38968;47.696;17.540;2023-02-22T12:29:20;10032460.0;;;17.16;43.56055
53089;BME280;38968;47.696;17.540;2023-02-22T12:34:39;10031310.0;;;17.17;42.98828
53089;BME280;38968;47.696;17.540;2023-02-22T12:39:35;10031000.0;;;17.29;44.24023
53089;BME280;38968;47.696;17.540;2023-02-22T12:44:15;10031240.0;;;17.35;42.76074
53089;BME280;38968;47.696;17.540;2023-02-22T12:49:27;10030280.0;;;17.56;42.48926
53089;BME280;38968;47.696;17.540;2023-02-22T12:59:32;10029640.0;;;17.82;41.43652
53089;BME280;38968;47.696;17.540;2023-02-22T13:04:13;10029070.0;;;17.73;41.66113
53089;BME280;38968;47.696;17.540;2023-02-22T13:14:30;10028500.0;;;17.82;41.56445
53089;BME280;38968;47.696;17.540;2023-02-22T13:19:29;10027980.0;;;17.8;41.56348
53089;BME280;38968;47.696;17.540;2023-02-22T13:29:30;10028000.0;;;17.76;40.96094
53089;BME280;38968;47.696;17.540;2023-02-22T13:49:25;10026950.0;;;17.93;39.99316
53089;BME280;38968;47.696;17.540;2023-02-22T13:59:24;10025720.0;;;18.14;39.63574
53089;BME280;38968;47.696;17.540;2023-02-22T14:14:14;10024300.0;;;18.56;40.07324
53089;BME280;38968;47.696;17.540;2023-02-22T14:19:19;10023770.0;;;18.54;40.38867
53089;BME280;38968;47.696;17.540;2023-02-22T14:24:14;10023410.0;;;19.87;38.75488
53089;BME280;38968;47.696;17.540;2023-02-22T14:29:17;10023390.0;;;21.39;35.48145
53089;BME280;38968;47.696;17.540;2023-02-22T14:34:17;10022090.0;;;22.1;33.83203
53089;BME280;38968;47.696;17.540;2023-02-22T14:39:18;10022100.0;;;22.23;32.88086
53089;BME280;38968;47.696;17.540;2023-02-22T14:44:15;10022840.0;;;21.1;34.24121
53089;BME280;38968;47.696;17.540;2023-02-22T14:49:14;10022340.0;;;20.22;35.71973
53089;BME280;38968;47.696;17.540;2023-02-22T14:54:34;10022620.0;;;19.67;36.90039
53089;BME280;38968;47.696;17.540;2023-02-22T14:59:23;10022670.0;;;19.56;36.72656
53089;BME280;38968;47.696;17.540;2023-02-22T15:04:23;10022780.0;;;19.17;37.75391
53089;BME280;38968;47.696;17.540;2023-02-22T15:09:15;10022190.0;;;19.11;37.90039
53089;BME280;38968;47.696;17.540;2023-02-22T15:14:19;10021320.0;;;18.9;37.87109
53089;BME280;38968;47.696;17.540;2023-02-22T15:19:14;10022260.0;;;18.58;38.10156
53089;BME280;38968;47.696;17.540;2023-02-22T15:24:17;10022210.0;;;18.29;38.67578
53089;BME280;38968;47.696;17.540;2023-02-22T15:29:17;10021620.0;;;17.82;39.7832
53089;BME280;38968;47.696;17.540;2023-02-22T15:34:22;10022190.0;;;17.73;40.49023
53089;BME280;38968;47.696;17.540;2023-02-22T15:39:18;10021770.0;;;17.67;40.69629
53089;BME280;38968;47.696;17.540;2023-02-22T15:44:13;10021370.0;;;17.57;41.21289
53089;BME280;38968;47.696;17.540;2023-02-22T15:54:14;10021720.0;;;17.59;41.12207
53089;BME280;38968;47.696;17.540;2023-02-22T15:59:14;10020440.0;;;17.47;41.3916
53089;BME280;38968;47.696;17.540;2023-02-22T16:04:18;10020690.0;;;17.29;41.52637
53089;BME280;38968;47.696;17.540;2023-02-22T16:14:39;10021570.0;;;16.85;42.875
53089;BME280;38968;47.696;17.540;2023-02-22T16:24:24;10022170.0;;;16.41;44.07031
53089;BME280;38968;47.696;17.540;2023-02-22T16:29:23;10022020.0;;;16.11;45.13477
53089;BME280;38968;47.696;17.540;2023-02-22T16:34:14;10021850.0;;;16.08;45.37793
53089;BME280;38968;47.696;17.540;2023-02-22T16:39:27;10022090.0;;;15.91;45.91992
53089;BME280;38968;47.696;17.540;2023-02-22T16:44:13;10022890.0;;;15.88;46.18359
53089;BME280;38968;47.696;17.540;2023-02-22T16:49:13;10022240.0;;;15.71;46.57422
53089;BME280;38968;47.696;17.540;2023-02-22T16:54:18;10022520.0;;;15.67;47.06934
53089;BME280;38968;47.696;17.540;2023-02-22T16:59:14;10023530.0;;;15.54;47.5332
53089;BME280;38968;47.696;17.540;2023-02-22T17:04:15;10023080.0;;;15.28;48.13379
53089;BME280;38968;47.696;17.540;2023-02-22T17:09:14;10024340.0;;;15.18;48.45898
53089;BME280;38968;47.696;17.540;2023-02-22T17:14:18;10023970.0;;;14.96;49.07324
53089;BME280;38968;47.696;17.540;2023-02-22T17:19:18;10024810.0;;;14.81;49.50879
53089;BME280;38968;47.696;17.540;2023-02-22T17:24:20;10024750.0;;;14.73;49.94043
53089;BME280;38968;47.696;17.540;2023-02-22T17:29:14;10024420.0;;;14.63;49.98828
53089;BME280;38968;47.696;17.540;2023-02-22T17:34:14;10025330.0;;;14.51;50.50684
53089;BME280;38968;47.696;17.540;2023-02-22T17:39:15;10025160.0;;;14.5;50.61035
53089;BME280;38968;47.696;17.540;2023-02-22T17:44:13;10025040.0;;;14.31;50.95996
53089;BME280;38968;47.696;17.540;2023-02-22T17:49:13;10024340.0;;;14.28;50.74805
53089;BME280;38968;47.696;17.540;2023-02-22T17:54:14;10024980.0;;;14.2;51.08594
53089;BME280;38968;47.696;17.540;2023-02-22T17:59:14;10024990.0;;;14.15;51.3125
53089;BME280;38968;47.696;17.540;2023-02-22T18:04:14;10024760.0;;;14.04;51.49609
53089;BME280;38968;47.696;17.540;2023-02-22T18:09:14;10023880.0;;;14.04;51.72754
53089;BME280;38968;47.696;17.540;2023-02-22T18:14:13;10024180.0;;;13.92;51.94434
53089;BME280;38968;47.696;17.540;2023-02-22T18:19:14;10023230.0;;;13.84;51.83203
53089;BME280;38968;47.696;17.540;2023-02-22T18:24:15;10023170.0;;;13.73;52.22266
53089;BME280;38968;47.696;17.540;2023-02-22T18:29:14;10022940.0;;;13.62;52.77734
53089;BME280;38968;47.696;17.540;2023-02-22T18:34:15;10022800.0;;;13.46;53.02344
53089;BME280;38968;47.696;17.540;2023-02-22T18:39:14;10022350.0;;;13.53;53.05469
53089;BME280;38968;47.696;17.540;2023-02-22T18:44:15;10022270.0;;;13.49;52.68066
53089;BME280;38968;47.696;17.540;2023-02-22T18:49:15;10022550.0;;;13.42;53.08789
53089;BME280;38968;47.696;17.540;2023-02-22T18:54:14;10023640.0;;;13.25;53.58789
53089;BME280;38968;47.696;17.540;2023-02-22T18:59:13;10023770.0;;;13.07;53.99219
53089;BME280;38968;47.696;17.540;2023-02-22T19:04:14;10023570.0;;;13.14;53.68848
53089;BME280;38968;47.696;17.540;2023-02-22T19:09:15;10022780.0;;;13.18;53.79785
53089;BME280;38968;47.696;17.540;2023-02-22T19:14:14;10022260.0;;;13.15;53.44727
53089;BME280;38968;47.696;17.540;2023-02-22T19:19:14;10022460.0;;;13.05;53.7832
53089;BME280;38968;47.696;17.540;2023-02-22T19:24:14;10022350.0;;;12.75;54.92188
53089;BME280;38968;47.696;17.540;2023-02-22T19:29:14;10022410.0;;;12.88;54.24609
53089;BME280;38968;47.696;17.540;2023-02-22T19:34:14;10022690.0;;;12.77;54.39453
53089;BME280;38968;47.696;17.540;2023-02-22T19:39:15;10023030.0;;;12.86;54.39258
53089;BME280;38968;47.696;17.540;2023-02-22T19:44:14;10023550.0;;;12.84;54.27539
53089;BME280;38968;47.696;17.540;2023-02-22T19:49:13;10023420.0;;;12.63;54.86133
53089;BME280;38968;47.696;17.540;2023-02-22T19:54:14;10023610.0;;;12.6;54.82227
53089;BME280;38968;47.696;17.540;2023-02-22T19:59:14;10024310.0;;;12.58;55.05078
53089;BME280;38968;47.696;17.540;2023-02-22T20:04:16;10023940.0;;;12.69;54.56836
53089;BME280;38968;47.696;17.540;2023-02-22T20:09:15;10024210.0;;;12.63;54.48047
53089;BME280;38968;47.696;17.540;2023-02-22T20:14:19;10023710.0;;;12.52;54.57129
53089;BME280;38968;47.696;17.540;2023-02-22T20:19:14;10023620.0;;;12.5;54.63672
53089;BME280;38968;47.696;17.540;2023-02-22T20:24:14;10023800.0;;;12.48;54.66895
53089;BME280;38968;47.696;17.540;2023-02-22T20:29:15;10023470.0;;;12.42;54.85645
53089;BME280;38968;47.696;17.540;2023-02-22T20:34:15;10023910.0;;;12.4;54.7041
53089;BME280;38968;47.696;17.540;2023-02-22T20:39:15;10025220.0;;;12.37;54.97656
53089;BME280;38968;47.696;17.540;2023-02-22T20:44:15;10025220.0;;;12.38;54.76074
53089;BME280;38968;47.696;17.540;2023-02-22T20:49:16;10025410.0;;;12.32;54.69434
53089;BME280;38968;47.696;17.540;2023-02-22T20:54:14;10024990.0;;;12.24;54.89258
53089;BME280;38968;47.696;17.540;2023-02-22T20:59:15;10024900.0;;;12.22;54.60254
53089;BME280;38968;47.696;17.540;2023-02-22T21:04:14;10025350.0;;;12.17;54.7002
53089;BME280;38968;47.696;17.540;2023-02-22T21:09:15;10024920.0;;;12.16;54.50293
53089;BME280;38968;47.696;17.540;2023-02-22T21:14:14;10024370.0;;;12.25;53.74219
53089;BME280;38968;47.696;17.540;2023-02-22T21:19:15;10024380.0;;;12.21;54.02441
53089;BME280;38968;47.696;17.540;2023-02-22T21:24:14;10023970.0;;;12.06;54.49121
53089;BME280;38968;47.696;17.540;2023-02-22T21:29:13;10024340.0;;;11.94;54.39453
53089;BME280;38968;47.696;17.540;2023-02-22T21:34:14;10023730.0;;;11.95;54.06152
53089;BME280;38968;47.696;17.540;2023-02-22T21:39:14;10023030.0;;;11.99;54.21582
53089;BME280;38968;47.696;17.540;2023-02-22T21:44:15;10024180.0;;;11.86;54.5791
53089;BME280;38968;47.696;17.540;2023-02-22T21:49:16;10022970.0;;;11.83;54.28809
53089;BME280;38968;47.696;17.540;2023-02-22T21:54:13;10024020.0;;;11.82;54.35645
53089;BME280;38968;47.696;17.540;2023-02-22T21:59:14;10023140.0;;;11.84;54.26758
53089;BME280;38968;47.696;17.540;2023-02-22T22:04:15;10023410.0;;;11.76;54.28027
53089;BME280;38968;47.696;17.540;2023-02-22T22:09:14;10023870.0;;;11.65;54.56543
53089;BME280;38968;47.696;17.540;2023-02-22T22:14:13;10022660.0;;;11.57;54.78418
53089;BME280;38968;47.696;17.540;2023-02-22T22:19:14;10023080.0;;;11.65;54.72656
53089;BME280;38968;47.696;17.540;2023-02-22T22:24:13;10022470.0;;;11.63;54.67871
53089;BME280;38968;47.696;17.540;2023-02-22T22:29:13;10023290.0;;;11.45;55.34473
53089;BME280;38968;47.696;17.540;2023-02-22T22:34:13;10023370.0;;;11.52;55.23926
53089;BME280;38968;47.696;17.540;2023-02-22T22:39:13;10023660.0;;;11.29;55.4502
53089;BME280;38968;47.696;17.540;2023-02-22T22:44:14;10022880.0;;;11.26;55.64258
53089;BME280;38968;47.696;17.540;2023-02-22T22:49:13;10023670.0;;;11.27;55.97754
53089;BME280;38968;47.696;17.540;2023-02-22T22:54:13;10023140.0;;;11.3;55.72949
53089;BME280;38968;47.696;17.540;2023-02-22T22:59:13;10023480.0;;;11.32;55.65137
53089;BME280;38968;47.696;17.540;2023-02-22T23:04:15;10023240.0;;;11.23;55.55859
53089;BME280;38968;47.696;17.540;2023-02-22T23:09:15;10023420.0;;;11.16;56.0332
53089;BME280;38968;47.696;17.540;2023-02-22T23:14:15;10023680.0;;;11.16;56.14844
53089;BME280;38968;47.696;17.540;2023-02-22T23:19:13;10023850.0;;;11.19;56.00195
53089;BME280;38968;47.696;17.540;2023-02-22T23:24:14;10023760.0;;;11.2;55.62402
53089;BME280;38968;47.696;17.540;2023-02-22T23:29:14;10023360.0;;;10.94;56.11914
53089;BME280;38968;47.696;17.540;2023-02-22T23:34:16;10022510.0;;;10.82;56.34473
53089;BME280;38968;47.696;17.540;2023-02-22T23:39:15;10022960.0;;;10.66;56.77051
53089;BME280;38968;47.696;17.540;2023-02-22T23:44:13;10022020.0;;;10.56;56.91797
53089;BME280;38968;47.696;17.540;2023-02-22T23:49:14;10022130.0;;;10.39;57.37891
53089;BME280;38968;47.696;17.540;2023-02-22T23:54:15;10021960.0;;;10.32;57.69043
53089;BME280;38968;47.696;17.540;2023-02-22T23:59:13;10021260.0;;;10.36;57.99316
